Time;durP1;ratioP1;P1;durP2;ratioP2;P2;SDS_P1;SDS_P2;PMS_P1;PMS_P2;Temp;Humidity;BMP_temperature;BMP_pressure;BME280_temperature;BME280_humidity;BME280_pressure;Samples;Min_cycle;Max_cycle;Signal;HPM_P1;HPM_P2
2022/10/21 00:00:38;;;;;;;2.20;2.00;;;;;;;8.09;79.77;101266.31;1821925;78;21099;-90
2022/10/21 00:03:05;;;;;;;3.02;1.60;;;;;;;8.08;79.72;101271.59;1820200;77;21414;-90
2022/10/21 00:05:32;;;;;;;2.25;2.05;;;;;;;8.04;79.58;101279.14;1820403;79;21420;-88
2022/10/21 00:08:00;;;;;;;2.77;1.65;;;;;;;8.00;79.60;101281.47;1822734;78;20930;-88
2022/10/21 00:10:27;;;;;;;2.83;2.00;;;;;;;7.98;79.48;101281.98;1820631;77;21077;-89
2022/10/21 00:12:54;;;;;;;2.47;2.20;;;;;;;7.95;79.44;101285.57;1819598;79;20981;-89
2022/10/21 00:15:22;;;;;;;3.87;1.90;;;;;;;7.94;79.44;101286.92;1819103;79;20898;-88
2022/10/21 00:17:48;;;;;;;3.05;2.37;;;;;;;7.89;79.41;101289.72;1819035;79;20938;-89
2022/10/21 00:20:15;;;;;;;3.25;2.10;;;;;;;7.88;79.50;101291.95;1818711;78;20979;-90
2022/10/21 00:22:43;;;;;;;3.55;1.98;;;;;;;7.86;79.57;101298.52;1820035;79;20974;-89
2022/10/21 00:25:10;;;;;;;3.62;2.08;;;;;;;7.86;79.47;101289.38;1821017;79;20800;-86
2022/10/21 00:27:36;;;;;;;1.95;1.80;;;;;;;7.84;79.58;101290.36;1819918;77;20961;-88
2022/10/21 00:30:04;;;;;;;2.33;2.05;;;;;;;7.86;79.66;101298.52;1819036;77;21408;-90
2022/10/21 00:32:31;;;;;;;2.77;2.17;;;;;;;7.86;79.54;101298.52;1818552;79;20899;-90
2022/10/21 00:34:58;;;;;;;2.87;1.65;;;;;;;7.86;79.62;101305.05;1818721;79;21124;-89
2022/10/21 00:37:25;;;;;;;2.17;2.05;;;;;;;7.87;79.56;101303.31;1820283;79;20840;-89
2022/10/21 00:39:52;;;;;;;5.62;2.75;;;;;;;7.87;79.68;101305.47;1819283;79;20895;-90
2022/10/21 00:42:21;;;;;;;2.12;1.80;;;;;;;7.89;79.65;101309.30;1818285;77;20930;-89
2022/10/21 00:45:07;;;;;;;4.55;2.00;;;;;;;7.91;79.72;101307.95;1818165;79;21366;-89
2022/10/21 00:47:45;;;;;;;5.42;2.95;;;;;;;7.94;79.78;101312.61;1817703;77;21170;-89
2022/10/21 00:50:30;;;;;;;3.47;2.40;;;;;;;7.98;79.59;101325.08;1817997;77;20875;-89
2022/10/21 00:52:56;;;;;;;2.22;2.12;;;;;;;7.96;79.37;101325.59;1818202;77;20919;-89
2022/10/21 00:55:23;;;;;;;5.05;2.70;;;;;;;7.90;79.25;101324.08;1818279;79;21464;-89
2022/10/21 00:57:50;;;;;;;2.42;2.10;;;;;;;7.86;79.16;101322.02;1818498;77;20863;-89
2022/10/21 01:00:17;;;;;;;3.00;2.27;;;;;;;7.82;79.19;101317.81;1818186;79;21218;-90
2022/10/21 01:02:45;;;;;;;4.83;2.33;;;;;;;7.76;79.14;101321.98;1818966;78;20966;-90
2022/10/21 01:05:11;;;;;;;4.15;2.30;;;;;;;7.70;79.26;101330.50;1820907;78;20886;-92
2022/10/21 01:07:38;;;;;;;2.95;2.40;;;;;;;7.67;79.44;101335.38;1821249;77;20934;-89
2022/10/21 01:10:06;;;;;;;2.65;2.02;;;;;;;7.63;79.66;101333.78;1820931;78;20969;-90
2022/10/21 01:13:04;;;;;;;2.50;2.20;;;;;;;7.60;79.82;101338.67;1820755;78;21095;-90
2022/10/21 01:15:46;;;;;;;4.62;1.65;;;;;;;7.57;79.89;101337.91;1820724;78;20903;-90
2022/10/21 01:18:26;;;;;;;4.03;2.55;;;;;;;7.54;80.05;101346.71;1820507;77;20982;-89
2022/10/21 01:21:23;;;;;;;2.50;2.30;;;;;;;7.52;80.28;101348.98;1820097;77;21534;-90
2022/10/21 01:24:32;;;;;;;2.58;2.30;;;;;;;7.55;80.57;101353.62;1806785;78;21090;-88
2022/10/21 01:27:20;;;;;;;2.75;2.25;;;;;;;7.58;80.52;101367.02;1820198;78;21170;-89
2022/10/21 01:30:27;;;;;;;2.45;2.25;;;;;;;7.58;80.40;101363.97;1820659;78;20982;-89
2022/10/21 01:33:08;;;;;;;6.80;2.45;;;;;;;7.56;80.52;101367.52;1820128;78;21427;-89
2022/10/21 01:35:48;;;;;;;4.20;2.50;;;;;;;7.55;80.58;101377.11;1820088;77;20954;-90
2022/10/21 01:38:26;;;;;;;3.27;2.70;;;;;;;7.57;80.58;101373.16;1820623;78;20930;-88
2022/10/21 01:41:04;;;;;;;5.08;2.37;;;;;;;7.58;80.51;101384.85;1820411;77;21843;-88
2022/10/21 01:44:02;;;;;;;3.45;2.25;;;;;;;7.60;80.52;101390.88;1820674;77;20895;-88
2022/10/21 01:46:48;;;;;;;3.25;2.62;;;;;;;7.61;80.51;101393.02;1820478;78;21479;-88
2022/10/21 01:49:32;;;;;;;3.02;2.72;;;;;;;7.61;80.28;101406.08;1820191;77;20903;-89
2022/10/21 01:51:59;;;;;;;4.90;2.73;;;;;;;7.59;80.31;101398.75;1820293;78;20875;-88
2022/10/21 01:54:41;;;;;;;4.15;3.15;;;;;;;7.59;80.25;101415.72;1789021;78;21255;-89
2022/10/21 01:57:07;;;;;;;3.67;2.45;;;;;;;7.58;80.33;101406.16;1820793;78;20938;-89
2022/10/21 01:59:35;;;;;;;3.83;2.15;;;;;;;7.58;80.34;101408.34;1821801;78;20997;-87
2022/10/21 02:02:03;;;;;;;2.92;2.72;;;;;;;7.57;80.27;101408.39;1824352;77;21112;-86
2022/10/21 02:04:31;;;;;;;2.65;2.40;;;;;;;7.56;80.39;101410.16;1831129;78;20886;-89
2022/10/21 02:06:58;;;;;;;4.50;2.87;;;;;;;7.56;80.39;101417.11;1832219;78;21040;-89
2022/10/21 02:09:24;;;;;;;3.65;2.95;;;;;;;7.56;80.38;101415.80;1831958;77;20961;-89
2022/10/21 02:11:51;;;;;;;3.83;2.45;;;;;;;7.54;80.35;101418.48;1831474;77;20871;-90
2022/10/21 02:14:26;;;;;;;3.08;2.55;;;;;;;7.54;80.51;101417.18;1831628;77;20844;-88
2022/10/21 02:16:53;;;;;;;3.83;2.40;;;;;;;7.57;80.47;101429.27;1829177;78;20954;-89
2022/10/21 02:19:21;;;;;;;5.25;2.80;;;;;;;7.57;80.60;101429.27;1829084;78;21133;-90
2022/10/21 02:21:50;;;;;;;4.58;2.65;;;;;;;7.59;80.47;101428.77;1830318;78;20929;-91
2022/10/21 02:24:37;;;;;;;3.62;2.60;;;;;;;7.58;80.39;101432.27;1828963;78;20926;-92
2022/10/21 02:27:03;;;;;;;3.55;2.67;;;;;;;7.57;80.44;101434.48;1829238;77;21044;-89
2022/10/21 02:29:35;;;;;;;3.58;3.08;;;;;;;7.56;80.53;101435.38;1829099;78;20879;-91
2022/10/21 02:32:33;;;;;;;5.05;3.00;;;;;;;7.58;80.50;101440.09;1828969;77;21065;-90
2022/10/21 02:35:29;;;;;;;3.02;2.70;;;;;;;7.57;80.39;101446.23;1829056;78;21392;-91
2022/10/21 02:38:19;;;;;;;3.92;2.77;;;;;;;7.57;80.51;101442.32;1828921;77;20874;-90
2022/10/21 02:41:05;;;;;;;3.37;2.50;;;;;;;7.58;80.41;101445.31;1828891;78;20946;-91
2022/10/21 02:43:42;;;;;;;3.90;2.62;;;;;;;7.53;80.41;101450.69;1829125;78;21483;-92
2022/10/21 02:46:11;;;;;;;2.40;2.10;;;;;;;7.51;80.53;101456.41;1828775;78;21775;-91
2022/10/21 02:48:39;;;;;;;5.35;2.67;;;;;;;7.51;80.59;101457.72;1829000;78;20925;-92
2022/10/21 02:51:06;;;;;;;4.62;3.50;;;;;;;7.52;80.68;101463.36;1829443;78;20922;-91
2022/10/21 02:53:33;;;;;;;3.35;2.40;;;;;;;7.54;80.74;101460.70;1829225;78;20957;-92
2022/10/21 02:56:00;;;;;;;3.00;2.80;;;;;;;7.59;80.68;101464.00;1831554;78;20914;-90
2022/10/21 02:58:26;;;;;;;3.33;2.65;;;;;;;7.59;80.45;101467.92;1831430;77;21080;-91
2022/10/21 03:00:53;;;;;;;3.20;2.12;;;;;;;7.59;80.45;101466.16;1829403;78;20957;-93
2022/10/21 03:03:20;;;;;;;3.87;3.58;;;;;;;7.60;80.38;101465.70;1823849;78;20966;-91
2022/10/21 03:05:47;;;;;;;3.85;2.50;;;;;;;7.57;80.25;101474.95;1818681;77;21404;-93
2022/10/21 03:08:15;;;;;;;5.12;2.72;;;;;;;7.51;80.33;101474.69;1819356;77;20911;-91
2022/10/21 03:10:42;;;;;;;4.10;2.92;;;;;;;7.51;80.32;101477.75;1820282;79;21164;-92
2022/10/21 03:13:08;;;;;;;3.70;2.70;;;;;;;7.46;80.18;101477.91;1819664;77;20907;-90
2022/10/21 03:15:35;;;;;;;3.98;3.10;;;;;;;7.41;80.04;101479.37;1818376;79;20883;-90
2022/10/21 03:18:02;;;;;;;3.70;2.75;;;;;;;7.36;80.08;101474.77;1818369;79;20934;-92
2022/10/21 03:20:30;;;;;;;6.75;2.50;;;;;;;7.34;80.27;101479.64;1818403;77;20867;-90
2022/10/21 03:22:57;;;;;;;3.58;2.10;;;;;;;7.29;80.38;101479.75;1818613;79;21868;-91
2022/10/21 03:25:23;;;;;;;2.60;2.40;;;;;;;7.28;80.60;101484.59;1818376;77;20899;-87
2022/10/21 03:27:52;;;;;;;4.12;2.83;;;;;;;7.28;80.74;101486.34;1818160;79;20895;-90
2022/10/21 03:30:19;;;;;;;4.00;2.55;;;;;;;7.29;80.79;101498.02;1818222;79;20871;-91
2022/10/21 03:32:46;;;;;;;5.55;4.00;;;;;;;7.31;81.02;101492.76;1818387;79;21487;-88
2022/10/21 03:35:14;;;;;;;5.67;2.80;;;;;;;7.35;80.98;101493.06;1818248;79;21472;-91
2022/10/21 03:37:41;;;;;;;2.95;2.40;;;;;;;7.37;80.94;101504.31;1818102;79;21404;-91
2022/10/21 03:40:09;;;;;;;6.37;3.92;;;;;;;7.39;80.89;101503.35;1818359;78;20903;-92
2022/10/21 03:42:36;;;;;;;4.00;2.40;;;;;;;7.40;80.83;101512.91;1819964;79;20899;-91
2022/10/21 03:45:04;;;;;;;3.95;2.65;;;;;;;7.40;80.64;101502.89;1820150;77;20879;-92
2022/10/21 03:47:30;;;;;;;3.47;2.60;;;;;;;7.40;80.65;101512.02;1818666;79;21882;-91
2022/10/21 03:49:57;;;;;;;2.95;2.25;;;;;;;7.38;80.63;101507.31;1818259;77;20899;-91
2022/10/21 03:52:24;;;;;;;2.83;2.55;;;;;;;7.38;80.62;101504.70;1818143;77;21017;-91
2022/10/21 03:54:51;;;;;;;2.67;2.40;;;;;;;7.36;80.63;101510.41;1818122;79;20935;-86
2022/10/21 03:57:18;;;;;;;7.65;5.80;;;;;;;7.35;80.79;101512.64;1818149;78;20986;-90
2022/10/21 03:59:44;;;;;;;5.45;3.00;;;;;;;7.35;80.82;101509.57;1818069;79;21187;-91
2022/10/21 04:02:11;;;;;;;4.60;2.72;;;;;;;7.34;80.86;101504.42;1818004;78;20894;-90
2022/10/21 04:04:38;;;;;;;3.70;2.72;;;;;;;7.34;80.92;101497.90;1820053;77;20954;-92
2022/10/21 04:07:04;;;;;;;3.92;2.30;;;;;;;7.36;81.14;101508.69;1820089;77;20983;-91
2022/10/21 04:09:31;;;;;;;3.42;3.08;;;;;;;7.39;81.24;101506.42;1820155;78;20926;-91
2022/10/21 04:11:59;;;;;;;3.33;2.60;;;;;;;7.39;80.92;101515.09;1820295;77;21128;-93
2022/10/21 04:14:26;;;;;;;2.77;2.58;;;;;;;7.39;81.07;101515.09;1820138;78;21336;-91
2022/10/21 04:16:52;;;;;;;5.05;2.58;;;;;;;7.40;81.09;101514.21;1820119;78;20879;-90
2022/10/21 04:19:20;;;;;;;3.30;3.00;;;;;;;7.40;81.09;101528.56;1820394;78;21384;-91
2022/10/21 04:21:49;;;;;;;3.85;2.60;;;;;;;7.40;80.99;101525.95;1820201;78;20879;-92
2022/10/21 04:24:16;;;;;;;3.12;2.80;;;;;;;7.40;81.11;101532.91;1820036;78;21776;-91
2022/10/21 04:26:43;;;;;;;5.85;2.42;;;;;;;7.43;81.20;101530.22;1820210;78;20879;-89
2022/10/21 04:29:10;;;;;;;3.92;2.83;;;;;;;7.45;81.01;101538.39;1821369;78;20923;-89
2022/10/21 04:31:37;;;;;;;5.83;2.98;;;;;;;7.46;80.93;101541.84;1822079;77;20934;-88
2022/10/21 04:34:03;;;;;;;3.47;3.05;;;;;;;7.46;81.00;101541.39;1820317;78;21319;-90
2022/10/21 04:36:31;;;;;;;5.05;3.30;;;;;;;7.45;80.87;101542.30;1820276;77;21126;-89
2022/10/21 04:38:57;;;;;;;2.87;2.65;;;;;;;7.45;80.87;101544.91;1820025;78;20930;-89
2022/10/21 04:41:24;;;;;;;6.65;3.52;;;;;;;7.48;81.07;101540.89;1820010;77;20958;-88
2022/10/21 04:43:51;;;;;;;5.72;4.15;;;;;;;7.51;80.81;101550.38;1819935;78;20914;-88
2022/10/21 04:46:19;;;;;;;5.05;3.52;;;;;;;7.54;80.79;101553.36;1819862;78;20879;-89
2022/10/21 04:48:46;;;;;;;3.77;3.20;;;;;;;7.57;80.71;101558.47;1819969;77;21826;-90
2022/10/21 04:51:13;;;;;;;4.50;3.40;;;;;;;7.62;80.77;101560.02;1819918;78;20935;-89
2022/10/21 04:53:41;;;;;;;4.17;3.40;;;;;;;7.65;80.49;101563.00;1819934;78;20883;-87
2022/10/21 04:56:08;;;;;;;4.67;3.05;;;;;;;7.68;80.51;101562.89;1820186;77;20961;-89
2022/10/21 04:58:35;;;;;;;3.85;3.08;;;;;;;7.72;80.25;101569.72;1820051;78;20934;-90
2022/10/21 05:01:02;;;;;;;5.20;3.83;;;;;;;7.72;80.07;101571.48;1820179;78;21280;-91
2022/10/21 05:03:28;;;;;;;4.80;3.62;;;;;;;7.73;79.92;101577.94;1819777;77;20911;-89
2022/10/21 05:05:55;;;;;;;4.60;3.47;;;;;;;7.75;79.83;101580.05;1820185;78;20935;-89
2022/10/21 05:08:22;;;;;;;4.40;3.87;;;;;;;7.78;79.65;101593.03;1820255;78;20864;-91
2022/10/21 05:10:48;;;;;;;5.15;4.35;;;;;;;7.79;79.53;101592.11;1820161;78;21448;-90
2022/10/21 05:13:15;;;;;;;4.28;3.70;;;;;;;7.83;79.41;101585.04;1820608;78;21330;-90
2022/10/21 05:15:43;;;;;;;5.60;4.22;;;;;;;7.84;79.28;101591.50;1821855;78;20914;-89
2022/10/21 05:18:10;;;;;;;3.80;3.45;;;;;;;7.88;79.15;101597.02;1821767;77;20989;-91
2022/10/21 05:20:37;;;;;;;3.50;3.17;;;;;;;7.89;79.07;101602.67;1820263;78;20938;-90
2022/10/21 05:23:05;;;;;;;5.87;4.08;;;;;;;7.91;78.94;101613.05;1821214;77;20938;-89
2022/10/21 05:25:31;;;;;;;7.37;3.77;;;;;;;7.92;78.83;101620.45;1822399;78;21078;-90
2022/10/21 05:27:58;;;;;;;4.08;3.27;;;;;;;7.94;78.74;101623.83;1822232;78;20922;-86
2022/10/21 05:30:25;;;;;;;4.67;3.62;;;;;;;7.92;78.45;101637.42;1822915;77;20954;-86
2022/10/21 05:32:52;;;;;;;4.65;4.08;;;;;;;7.89;78.44;101640.53;1822506;78;21368;-90
2022/10/21 05:35:19;;;;;;;5.58;3.92;;;;;;;7.93;78.51;101636.50;1820363;78;20883;-89
2022/10/21 05:37:46;;;;;;;4.92;3.47;;;;;;;7.97;78.31;101638.97;1820520;78;21119;-88
2022/10/21 05:40:12;;;;;;;5.30;3.62;;;;;;;8.01;78.31;101639.73;1820313;78;20875;-90
2022/10/21 05:42:39;;;;;;;3.62;3.00;;;;;;;8.08;78.24;101642.53;1820106;77;20883;-89
2022/10/21 05:45:07;;;;;;;5.20;3.83;;;;;;;8.14;78.04;101646.69;1820093;78;21490;-89
2022/10/21 05:47:34;;;;;;;6.62;3.15;;;;;;;8.19;77.72;101643.48;1820162;78;20879;-90
2022/10/21 05:50:01;;;;;;;3.98;3.58;;;;;;;8.25;77.60;101645.44;1820646;78;21614;-91
2022/10/21 05:52:27;;;;;;;6.28;3.40;;;;;;;8.32;77.53;101650.47;1821016;78;21490;-93
2022/10/21 05:54:53;;;;;;;3.35;3.05;;;;;;;8.40;77.22;101662.38;1821152;77;20887;-90
2022/10/21 05:57:20;;;;;;;4.10;3.70;;;;;;;8.45;77.05;101663.09;1821180;78;20884;-91
2022/10/21 05:59:47;;;;;;;4.62;4.00;;;;;;;8.51;76.79;101663.31;1821356;78;20938;-91
2022/10/21 06:02:14;;;;;;;4.90;4.35;;;;;;;8.57;76.47;101663.58;1823005;78;21218;-90
2022/10/21 06:04:41;;;;;;;3.67;3.37;;;;;;;8.60;76.37;101665.61;1828752;77;20904;-92
2022/10/21 06:07:08;;;;;;;5.78;3.25;;;;;;;8.61;75.90;101664.72;1830566;77;20871;-93
2022/10/21 06:09:36;;;;;;;4.42;2.98;;;;;;;8.60;75.90;101663.45;1830257;77;20910;-91
2022/10/21 06:12:03;;;;;;;4.72;3.00;;;;;;;8.59;75.92;101671.77;1830800;77;20913;-91
2022/10/21 06:14:30;;;;;;;3.08;2.58;;;;;;;8.61;75.96;101673.87;1831838;77;21111;-89
2022/10/21 06:16:56;;;;;;;3.80;3.40;;;;;;;8.65;75.98;101676.78;1829921;78;20918;-90
2022/10/21 06:19:23;;;;;;;3.35;3.05;;;;;;;8.69;75.90;101678.39;1830047;78;20863;-90
2022/10/21 06:21:53;;;;;;;4.03;3.22;;;;;;;8.71;75.97;101686.16;1829842;77;20866;-91
2022/10/21 06:24:20;;;;;;;4.55;2.95;;;;;;;8.75;75.97;101687.77;1830182;77;20918;-91
2022/10/21 06:26:49;;;;;;;3.20;2.87;;;;;;;8.81;75.80;101690.17;1831143;78;20958;-91
2022/10/21 06:29:19;;;;;;;3.77;2.87;;;;;;;8.90;75.55;101690.30;1826239;78;20969;-91
2022/10/21 06:31:45;;;;;;;5.10;3.52;;;;;;;8.97;74.97;101689.62;1826792;78;20930;-91
2022/10/21 06:34:12;;;;;;;3.55;3.22;;;;;;;9.00;74.56;101686.88;1804215;78;20930;-91
2022/10/21 06:36:39;;;;;;;4.35;3.02;;;;;;;9.03;74.44;101690.26;1804081;78;20894;-92
2022/10/21 06:39:09;;;;;;;3.42;2.85;;;;;;;9.12;74.37;101686.45;1779279;77;21108;-91
2022/10/21 06:41:38;;;;;;;3.85;2.85;;;;;;;9.23;74.13;101689.52;1731549;81;20915;-90
2022/10/21 06:44:06;;;;;;;3.25;2.95;;;;;;;9.31;73.27;101683.52;1760063;81;20990;-90
2022/10/21 06:46:35;;;;;;;3.17;2.92;;;;;;;9.34;72.38;101690.44;1759671;81;20931;-88
2022/10/21 06:49:02;;;;;;;4.03;3.67;;;;;;;9.40;72.24;101697.19;1760744;80;20922;-92
2022/10/21 06:51:29;;;;;;;3.80;3.50;;;;;;;9.48;71.98;101691.22;1759291;81;21258;-91
2022/10/21 06:53:58;;;;;;;3.58;2.90;;;;;;;9.53;71.30;101688.80;1758690;81;20918;-91
2022/10/21 06:56:26;;;;;;;5.60;3.40;;;;;;;9.53;70.65;101689.27;1729574;80;20895;-91
2022/10/21 06:58:56;;;;;;;4.20;3.17;;;;;;;9.53;70.39;101689.27;1759340;80;20888;-92
2022/10/21 07:01:28;;;;;;;5.45;3.35;;;;;;;9.54;70.38;101694.45;1759722;81;21380;-90
2022/10/21 07:03:55;;;;;;;3.22;2.90;;;;;;;9.60;70.39;101693.34;1759720;81;22630;-90
2022/10/21 07:06:21;;;;;;;2.90;2.62;;;;;;;9.67;69.43;101686.11;1759311;81;20879;-90
2022/10/21 07:08:50;;;;;;;3.98;3.27;;;;;;;9.68;69.02;101689.98;1759053;81;21017;-92
2022/10/21 07:11:17;;;;;;;4.37;2.98;;;;;;;9.69;68.46;101685.59;1760066;81;20894;-90
2022/10/21 07:13:44;;;;;;;5.53;3.05;;;;;;;9.68;68.28;101689.98;1760454;81;20891;-92
2022/10/21 07:16:21;;;;;;;5.12;3.10;;;;;;;9.66;68.09;101685.26;1755836;81;22731;-90
2022/10/21 07:18:48;;;;;;;3.85;3.55;;;;;;;9.66;68.10;101681.80;1760899;81;20852;-90
2022/10/21 07:21:21;;;;;;;4.33;3.62;;;;;;;9.67;68.12;101684.80;1760352;81;20911;-90
2022/10/21 07:23:50;;;;;;;3.77;3.47;;;;;;;9.64;67.51;101684.47;1730239;83;20934;-90
2022/10/21 07:26:19;;;;;;;4.15;3.77;;;;;;;9.55;66.85;101683.05;1730341;82;20926;-90
2022/10/21 07:28:48;;;;;;;3.90;3.60;;;;;;;9.44;66.24;101684.39;1730433;83;20879;-88
2022/10/21 07:31:17;;;;;;;3.65;3.10;;;;;;;9.33;66.00;101688.25;1730181;83;20986;-89
2022/10/21 07:33:46;;;;;;;50.85;39.35;;;;;;;9.19;65.28;101694.93;1730097;83;20848;-91
2022/10/21 07:36:19;;;;;;;62.78;45.85;;;;;;;9.08;65.56;101698.78;1730503;82;21349;-91
2022/10/21 07:38:47;;;;;;;137.55;93.70;;;;;;;9.02;65.71;101699.45;1728719;81;20899;-90
2022/10/21 07:41:21;;;;;;;10.35;8.90;;;;;;;8.96;65.97;101703.59;1727519;81;21087;-89
2022/10/21 07:43:49;;;;;;;9.55;8.30;;;;;;;8.93;65.79;101702.80;1725796;82;21624;-89
2022/10/21 07:46:17;;;;;;;17.52;12.60;;;;;;;8.91;64.91;101706.38;1726676;82;20852;-89
2022/10/21 07:48:43;;;;;;;15.90;12.23;;;;;;;8.88;64.74;101718.27;1726553;81;20927;-88
2022/10/21 07:51:15;;;;;;;3.42;3.22;;;;;;;8.83;64.02;101708.44;1726396;81;20958;-89
2022/10/21 07:53:41;;;;;;;3.98;3.67;;;;;;;8.92;64.20;101709.41;1727043;82;21159;-90
2022/10/21 07:56:14;;;;;;;2.58;2.37;;;;;;;9.36;63.81;101713.48;1727629;83;21006;-91
2022/10/21 07:58:42;;;;;;;3.02;2.77;;;;;;;10.17;63.28;101716.00;1728163;83;20982;-89
2022/10/21 08:01:10;;;;;;;2.62;2.42;;;;;;;11.20;59.42;101713.81;1728205;83;21011;-90
2022/10/21 08:03:37;;;;;;;2.30;2.10;;;;;;;12.17;56.02;101718.48;1728191;83;20855;-90
2022/10/21 08:06:06;;;;;;;2.42;2.22;;;;;;;13.04;52.70;101722.86;1728181;80;21544;-91
2022/10/21 08:08:38;;;;;;;2.92;2.02;;;;;;;13.84;50.46;101723.36;1727362;82;21345;-92
2022/10/21 08:11:09;;;;;;;1.50;1.40;;;;;;;14.60;48.70;101721.70;1728262;82;20931;-92
2022/10/21 08:13:40;;;;;;;1.35;1.25;;;;;;;15.20;46.80;101730.81;1728188;83;20860;-89
2022/10/21 08:16:07;;;;;;;1.20;1.10;;;;;;;15.64;44.25;101726.34;1727994;82;20851;-89
2022/10/21 08:18:36;;;;;;;1.57;1.47;;;;;;;15.82;44.39;101730.96;1728046;83;20848;-91
2022/10/21 08:21:03;;;;;;;1.70;1.20;;;;;;;15.86;43.56;101731.14;1728163;83;20974;-88
2022/10/21 08:23:33;;;;;;;1.30;1.20;;;;;;;15.78;43.70;101738.72;1727948;83;20943;-91
2022/10/21 08:26:00;;;;;;;1.05;1.05;;;;;;;15.62;43.64;101738.33;1704177;83;20954;-86
2022/10/21 08:28:28;;;;;;;0.80;0.80;;;;;;;15.50;43.18;101741.77;1726562;81;20915;-90
2022/10/21 08:31:07;;;;;;;0.82;0.80;;;;;;;15.35;43.83;101739.60;1726515;83;21184;-88
2022/10/21 08:33:34;;;;;;;0.70;0.70;;;;;;;15.10;42.37;101742.44;1726565;80;20990;-88
2022/10/21 08:36:19;;;;;;;0.70;0.70;;;;;;;14.70;42.54;101741.35;1726471;82;20943;-91
2022/10/21 08:38:45;;;;;;;48.38;39.95;;;;;;;14.23;42.20;101732.60;1706256;81;21136;-89
2022/10/21 08:41:29;;;;;;;49.70;36.10;;;;;;;13.69;42.88;101730.80;1728011;81;20977;-88
2022/10/21 08:44:31;;;;;;;4.35;3.72;;;;;;;13.43;44.32;101734.41;1728223;80;21082;-89
2022/10/21 08:47:18;;;;;;;4.30;2.77;;;;;;;13.25;44.90;101739.30;1728344;80;20832;-89
2022/10/21 08:49:59;;;;;;;4.65;2.62;;;;;;;13.25;45.40;101744.56;1727522;82;21322;-91
2022/10/21 08:52:37;;;;;;;1.87;1.20;;;;;;;13.20;44.28;101739.55;1727209;83;20939;-91
2022/10/21 08:55:23;;;;;;;3.87;3.33;;;;;;;13.19;44.58;101735.70;1710638;83;20887;-89
2022/10/21 08:57:52;;;;;;;3.65;2.05;;;;;;;13.39;45.13;101733.34;1722565;80;22784;-88
2022/10/21 09:00:25;;;;;;;0.70;0.70;;;;;;;13.65;44.66;101737.17;1727580;83;20993;-88
2022/10/21 09:03:25;;;;;;;0.45;0.40;;;;;;;13.77;44.43;101737.83;1727261;83;20935;-88
2022/10/21 09:06:22;;;;;;;1.25;0.30;;;;;;;13.93;44.20;101740.94;1728103;83;20930;-90
2022/10/21 09:09:15;;;;;;;0.45;0.45;;;;;;;15.19;42.41;101743.67;1728414;82;20891;-92
2022/10/21 09:11:53;;;;;;;0.82;0.80;;;;;;;15.19;42.41;101743.67;1719116;80;21164;-91
2022/10/21 09:14:46;;;;;;;1.00;0.50;;;;;;;15.65;41.33;101742.13;1727702;83;20938;-89
2022/10/21 09:17:40;;;;;;;0.95;0.68;;;;;;;15.80;40.85;101744.28;1726816;83;20958;-88
2022/10/21 09:20:31;;;;;;;0.68;0.68;;;;;;;15.71;40.63;101745.71;1728178;82;20923;-88
2022/10/21 09:23:24;;;;;;;0.55;0.55;;;;;;;15.09;40.84;101747.33;1727279;83;21381;-89
2022/10/21 09:26:13;;;;;;;0.70;0.50;;;;;;;15.09;40.84;101747.33;1717095;83;21174;-91
2022/10/21 09:28:40;;;;;;;0.47;0.45;;;;;;;14.83;41.39;101746.28;1726698;83;20981;-89
2022/10/21 09:31:16;;;;;;;1.07;0.50;;;;;;;14.69;40.92;101744.91;1726757;81;20859;-90
2022/10/21 09:33:51;;;;;;;0.65;0.40;;;;;;;14.69;40.92;101744.91;1726895;83;20891;-91
2022/10/21 09:36:23;;;;;;;;;;;;;;;14.99;41.81;101754.12;1646277;86;20948;-91
2022/10/21 09:38:55;;;;;;;0.50;0.50;;;;;;;15.23;40.78;101747.83;1661705;84;20828;-90
2022/10/21 09:41:25;;;;;;;0.40;0.40;;;;;;;15.47;40.57;101752.52;1726332;82;20990;-90
2022/10/21 09:43:54;;;;;;;1.47;0.50;;;;;;;15.55;40.35;101747.61;1726392;83;20887;-92
2022/10/21 09:46:21;;;;;;;0.70;0.30;;;;;;;15.78;40.63;101747.97;1726266;82;20946;-92
2022/10/21 09:48:54;;;;;;;0.40;0.40;;;;;;;15.95;40.05;101752.55;1727341;82;20907;-89
2022/10/21 09:51:28;;;;;;;0.60;0.60;;;;;;;16.10;39.24;101741.94;1728147;81;21099;-93
2022/10/21 09:54:09;;;;;;;1.20;0.57;;;;;;;16.22;38.73;101748.22;1728232;83;20915;-90
2022/10/21 09:56:44;;;;;;;0.33;0.33;;;;;;;16.34;38.75;101760.17;1720578;81;20855;-91
2022/10/21 09:59:18;;;;;;;0.35;0.35;;;;;;;16.52;39.06;101751.97;1727215;83;20895;-91
2022/10/21 10:01:44;;;;;;;;;;;;;;;16.74;39.14;101758.83;1729360;83;20898;-92
2022/10/21 10:04:22;;;;;;;0.53;0.40;;;;;;;17.09;38.28;101751.60;1726226;82;21010;-91
2022/10/21 10:06:48;;;;;;;0.93;0.30;;;;;;;17.24;37.74;101750.17;1725762;83;20907;-91
2022/10/21 10:09:36;;;;;;;0.70;0.30;;;;;;;17.15;37.91;101747.20;1726174;82;20887;-90
2022/10/21 10:12:07;;;;;;;1.02;0.57;;;;;;;16.91;37.84;101747.58;1726996;83;20907;-89
2022/10/21 10:14:43;;;;;;;2.00;0.30;;;;;;;16.59;38.01;101747.95;1726160;82;21369;-89
2022/10/21 10:20:16;;;;;;;1.67;0.60;;;;;;;15.95;38.75;101737.16;1799322;79;22406;-89
2022/10/21 10:23:07;;;;;;;0.78;0.78;;;;;;;15.58;39.54;101746.08;1758957;80;20935;-89
2022/10/21 10:25:37;;;;;;;1.07;0.68;;;;;;;15.20;40.10;101747.16;1729979;81;20932;-90
2022/10/21 10:28:15;;;;;;;0.70;0.45;;;;;;;14.87;41.09;101751.77;1759901;80;20960;-91
2022/10/21 10:30:47;;;;;;;0.78;0.50;;;;;;;14.59;41.89;101747.27;1759664;81;20971;-90
2022/10/21 10:33:24;;;;;;;0.65;0.60;;;;;;;14.35;42.49;101750.83;1759751;80;20956;-91
2022/10/21 10:36:00;;;;;;;1.02;0.78;;;;;;;14.14;43.01;101745.45;1741078;81;21213;-89
2022/10/21 10:38:39;;;;;;;0.50;0.50;;;;;;;13.95;43.59;101750.45;1759422;81;21346;-90
2022/10/21 10:41:16;;;;;;;0.62;0.47;;;;;;;13.78;44.02;101750.53;1761240;81;20888;-91
2022/10/21 10:43:53;;;;;;;0.80;0.80;;;;;;;13.60;44.53;101753.25;1760433;81;21038;-91
2022/10/21 10:46:31;;;;;;;1.60;1.02;;;;;;;13.42;45.58;101750.30;1760457;80;20915;-90
2022/10/21 10:49:20;;;;;;;0.72;0.72;;;;;;;13.12;46.82;101742.23;1759801;80;21345;-89
2022/10/21 10:52:09;;;;;;;1.05;0.60;;;;;;;13.12;46.82;101742.23;1760212;80;21254;-87
2022/10/21 10:54:38;;;;;;;1.60;1.50;;;;;;;12.89;47.72;101749.99;1759994;80;20940;-92
2022/10/21 10:57:16;;;;;;;1.55;1.42;;;;;;;12.70;48.38;101748.31;1760364;80;20932;-92
2022/10/21 10:59:54;;;;;;;0.90;0.80;;;;;;;12.55;48.65;101751.23;1760416;80;20987;-89
2022/10/21 11:02:46;;;;;;;1.90;0.90;;;;;;;12.49;49.13;101746.75;1736816;81;20944;-90
2022/10/21 11:05:37;;;;;;;0.80;0.80;;;;;;;12.41;49.25;101755.03;1740878;81;21447;-89
2022/10/21 11:08:15;;;;;;;0.90;0.90;;;;;;;12.34;49.20;101745.72;1760046;80;21354;-90
2022/10/21 11:10:58;;;;;;;0.93;0.62;;;;;;;12.29;49.39;101749.89;1760072;80;21485;-90
2022/10/21 11:13:27;;;;;;;2.10;0.90;;;;;;;12.18;49.32;101757.02;1760199;81;20979;-90
2022/10/21 11:16:26;;;;;;;0.65;0.65;;;;;;;12.08;49.63;101752.27;1760304;80;20900;-90
2022/10/21 11:19:14;;;;;;;0.78;0.68;;;;;;;12.03;50.03;101744.61;1760315;80;21202;-91
2022/10/21 11:21:51;;;;;;;1.60;0.80;;;;;;;11.96;50.16;101751.06;1761131;81;20904;-88
2022/10/21 11:24:50;;;;;;;0.93;0.90;;;;;;;11.86;50.22;101753.25;1760421;80;20900;-90
2022/10/21 11:27:34;;;;;;;1.17;0.88;;;;;;;11.74;50.62;101756.47;1755035;78;20963;-89
2022/10/21 11:30:26;;;;;;;1.00;1.00;;;;;;;11.63;51.12;101751.70;1760184;80;21007;-88
2022/10/21 11:33:06;;;;;;;1.72;0.85;;;;;;;11.54;50.99;101747.73;1758804;81;21114;-89
2022/10/21 11:36:01;;;;;;;0.93;0.80;;;;;;;11.48;51.20;101745.84;1758677;81;20915;-89
2022/10/21 11:38:37;;;;;;;0.50;0.50;;;;;;;11.43;51.00;101745.18;1758338;80;20963;-89
2022/10/21 11:41:29;;;;;;;2.52;1.47;;;;;;;11.36;51.33;101748.55;1759103;80;20991;-89
2022/10/21 11:44:21;;;;;;;0.60;0.60;;;;;;;11.29;51.84;101752.37;1760543;81;20916;-88
2022/10/21 11:47:10;;;;;;;0.62;0.62;;;;;;;11.24;52.33;101754.36;1760027;81;21487;-88
2022/10/21 11:49:51;;;;;;;1.32;1.02;;;;;;;11.18;52.75;101756.34;1759373;81;21405;-89
2022/10/21 11:53:01;;;;;;;0.95;0.80;;;;;;;11.11;52.54;101757.52;1759633;81;21390;-88
2022/10/21 11:55:45;;;;;;;0.80;0.80;;;;;;;11.09;52.73;101759.82;1759493;81;20971;-90
2022/10/21 11:58:57;;;;;;;1.62;1.12;;;;;;;11.01;52.82;101760.17;1761314;81;21409;-89
2022/10/21 12:01:48;;;;;;;1.10;1.00;;;;;;;10.97;52.32;101755.97;1761344;79;21148;-90